createdAt,value
2022-08-05T00:00:26.977Z,99206.00
2022-08-05T00:02:07.846Z,99211.00
2022-08-05T00:03:45.721Z,99220.00
2022-08-05T00:06:03.253Z,99216.00
2022-08-05T00:07:27.275Z,99209.00
2022-08-05T00:09:12.861Z,99206.00
2022-08-05T00:10:50.555Z,99205.00
2022-08-05T00:12:23.906Z,99215.00
2022-08-05T00:13:57.793Z,99207.00
2022-08-05T00:15:54.871Z,99191.00
2022-08-05T00:17:25.737Z,99185.00
2022-08-05T00:18:59.276Z,99181.00
2022-08-05T00:20:32.888Z,99186.00
2022-08-05T00:22:06.677Z,99181.00
2022-08-05T00:23:53.662Z,99182.00
2022-08-05T00:25:46.176Z,99178.00
2022-08-05T00:27:21.343Z,99180.00
2022-08-05T00:29:02.490Z,99170.00
2022-08-05T00:30:36.871Z,99176.00
2022-08-05T00:32:15.333Z,99163.00
2022-08-05T00:34:55.856Z,99159.00
2022-08-05T00:35:48.015Z,99154.00
2022-08-05T00:37:53.221Z,99147.00
2022-08-05T00:39:27.772Z,99152.00
2022-08-05T00:41:11.679Z,99151.00
2022-08-05T00:42:49.193Z,99150.00
2022-08-05T00:44:30.932Z,99149.00
2022-08-05T00:46:04.888Z,99158.00
2022-08-05T00:47:57.246Z,99147.00
2022-08-05T00:49:51.074Z,99141.00
2022-08-05T00:51:50.512Z,99138.00
2022-08-05T00:54:00.439Z,99137.00
2022-08-05T00:55:15.498Z,99140.00
2022-08-05T00:56:51.592Z,99138.00
2022-08-05T00:58:27.485Z,99142.00
2022-08-05T01:00:00.182Z,99133.00
2022-08-05T01:01:42.586Z,99136.00
2022-08-05T01:03:23.494Z,99139.00
2022-08-05T01:04:57.420Z,99143.00
2022-08-05T01:06:32.606Z,99132.00
2022-08-05T01:08:39.879Z,99138.00
2022-08-05T01:10:04.355Z,99145.00
2022-08-05T01:11:48.696Z,99147.00
2022-08-05T01:13:58.904Z,99147.00
2022-08-05T01:15:47.891Z,99140.00
2022-08-05T01:17:39.863Z,99146.00
2022-08-05T01:20:01.338Z,99148.00
2022-08-05T01:22:00.815Z,99139.00
2022-08-05T01:23:58.909Z,99133.00
2022-08-05T01:25:54.514Z,99138.00
2022-08-05T01:28:15.658Z,99137.00
2022-08-05T01:29:55.440Z,99137.00
2022-08-05T01:31:44.752Z,99139.00
2022-08-05T01:33:25.298Z,99137.00
2022-08-05T01:35:10.367Z,99137.00
2022-08-05T01:36:52.827Z,99133.00
2022-08-05T01:38:29.408Z,99138.00
2022-08-05T01:40:07.619Z,99139.00
2022-08-05T01:41:44.374Z,99145.00
2022-08-05T01:43:22.017Z,99145.00
2022-08-05T01:44:59.148Z,99139.00
2022-08-05T01:46:43.161Z,99133.00
2022-08-05T01:48:21.847Z,99141.00
2022-08-05T01:50:01.314Z,99146.00
2022-08-05T01:51:37.129Z,99138.00
2022-08-05T01:53:16.851Z,99144.00
2022-08-05T01:55:14.223Z,99145.00
2022-08-05T01:58:12.247Z,99147.00
2022-08-05T01:58:47.089Z,99153.00
2022-08-05T02:00:30.324Z,99143.00
2022-08-05T02:02:10.565Z,99147.00
2022-08-05T02:03:52.591Z,99152.00
2022-08-05T02:05:35.828Z,99144.00
2022-08-05T02:07:10.522Z,99138.00
2022-08-05T02:08:58.826Z,99136.00
2022-08-05T02:10:44.066Z,99130.00
2022-08-05T02:12:26.581Z,99128.00
2022-08-05T02:14:12.757Z,99142.00
2022-08-05T02:15:51.139Z,99149.00
2022-08-05T02:18:28.136Z,99148.00
2022-08-05T02:19:35.515Z,99148.00
2022-08-05T02:21:15.845Z,99156.00
2022-08-05T02:22:58.002Z,99155.00
2022-08-05T02:24:39.927Z,99164.00
2022-08-05T02:26:23.014Z,99151.00
2022-08-05T02:28:02.138Z,99154.00
2022-08-05T02:29:59.772Z,99160.00
2022-08-05T02:31:37.298Z,99155.00
2022-08-05T02:33:15.530Z,99164.00
2022-08-05T02:35:02.155Z,99178.00
2022-08-05T02:36:52.542Z,99197.00
2022-08-05T02:38:35.120Z,99207.00
2022-08-05T02:40:11.567Z,99219.00
2022-08-05T02:42:01.027Z,99224.00
2022-08-05T02:43:37.432Z,99223.00
2022-08-05T02:45:51.937Z,99223.00
2022-08-05T02:48:06.622Z,99225.00
2022-08-05T02:49:24.688Z,99221.00
2022-08-05T02:51:01.510Z,99221.00
2022-08-05T02:52:36.153Z,99221.00
2022-08-05T02:54:11.575Z,99223.00
2022-08-05T02:56:06.545Z,99229.00
2022-08-05T02:58:09.950Z,99229.00
2022-08-05T03:00:31.871Z,99237.00
2022-08-05T03:02:09.325Z,99236.00
2022-08-05T03:04:02.290Z,99234.00
2022-08-05T03:06:54.784Z,99237.00
2022-08-05T03:07:59.496Z,99249.00
2022-08-05T03:09:27.194Z,99250.00
2022-08-05T03:11:55.639Z,99237.00
2022-08-05T03:13:16.804Z,99237.00
2022-08-05T03:14:50.635Z,99241.00
2022-08-05T03:16:24.220Z,99244.00
2022-08-05T03:17:59.406Z,99265.00
2022-08-05T03:19:34.503Z,99275.00
2022-08-05T03:21:09.728Z,99274.00
2022-08-05T03:22:46.780Z,99281.00
2022-08-05T03:24:30.040Z,99290.00
2022-08-05T03:26:31.799Z,99305.00
2022-08-05T03:28:00.666Z,99304.00
2022-08-05T03:29:44.591Z,99304.00
2022-08-05T03:31:56.990Z,99318.00
2022-08-05T03:33:15.717Z,99329.00
2022-08-05T03:34:51.373Z,99332.00
2022-08-05T03:36:30.328Z,99333.00
2022-08-05T03:38:04.424Z,99313.00
2022-08-05T03:39:58.600Z,99278.00
2022-08-05T03:41:32.982Z,99272.00
2022-08-05T03:43:58.261Z,99260.00
2022-08-05T03:45:21.399Z,99228.00
2022-08-05T03:46:56.333Z,99195.00
2022-08-05T03:48:35.474Z,99192.00
2022-08-05T03:50:10.180Z,99190.00
2022-08-05T03:52:38.381Z,99177.00
2022-08-05T03:55:50.145Z,99170.00
2022-08-05T03:56:10.463Z,99159.00
2022-08-05T03:57:50.971Z,99176.00
2022-08-05T03:59:47.153Z,99188.00
2022-08-05T04:01:24.670Z,99207.00
2022-08-05T04:03:04.321Z,99194.00
2022-08-05T04:04:40.605Z,99186.00
2022-08-05T04:06:20.559Z,99181.00
2022-08-05T04:07:58.769Z,99203.00
2022-08-05T04:09:36.684Z,99197.00
2022-08-05T04:11:12.092Z,99197.00
2022-08-05T04:12:46.139Z,99198.00
2022-08-05T04:14:30.536Z,99198.00
2022-08-05T04:16:05.021Z,99190.00
2022-08-05T04:17:56.568Z,99193.00
2022-08-05T04:19:31.318Z,99194.00
2022-08-05T04:21:07.810Z,99184.00
2022-08-05T04:22:44.582Z,99182.00
2022-08-05T04:24:19.378Z,99185.00
2022-08-05T04:26:00.931Z,99191.00
2022-08-05T04:27:43.628Z,99189.00
2022-08-05T04:29:28.144Z,99175.00
2022-08-05T04:31:04.010Z,99177.00
2022-08-05T04:32:43.937Z,99185.00
2022-08-05T04:34:32.820Z,99188.00
2022-08-05T04:36:38.421Z,99178.00
2022-08-05T04:38:06.527Z,99188.00
2022-08-05T04:39:40.527Z,99186.00
2022-08-05T04:41:14.421Z,99184.00
2022-08-05T04:42:49.943Z,99182.00
2022-08-05T04:44:29.692Z,99190.00
2022-08-05T04:46:05.034Z,99187.00
2022-08-05T04:47:42.840Z,99189.00
2022-08-05T04:49:38.015Z,99191.00
2022-08-05T04:51:14.292Z,99179.00
2022-08-05T04:52:47.964Z,99179.00
2022-08-05T04:54:26.885Z,99180.00
2022-08-05T04:56:32.275Z,99174.00
2022-08-05T04:57:55.360Z,99163.00
2022-08-05T04:59:38.399Z,99159.00
2022-08-05T05:01:13.422Z,99156.00
2022-08-05T05:02:47.000Z,99162.00
2022-08-05T05:04:20.398Z,99156.00
2022-08-05T05:06:36.165Z,99158.00
2022-08-05T05:07:56.298Z,99161.00
2022-08-05T05:09:34.138Z,99172.00
2022-08-05T05:11:11.737Z,99164.00
2022-08-05T05:12:50.686Z,99167.00
2022-08-05T05:14:28.106Z,99173.00
2022-08-05T05:16:07.258Z,99171.00
2022-08-05T05:17:56.779Z,99181.00
2022-08-05T05:19:37.178Z,99168.00
2022-08-05T05:21:19.596Z,99158.00
2022-08-05T05:22:54.295Z,99150.00
2022-08-05T05:24:56.183Z,99156.00
2022-08-05T05:26:28.759Z,99148.00
2022-08-05T05:28:06.566Z,99147.00
2022-08-05T05:29:41.165Z,99155.00
2022-08-05T05:33:16.877Z,99183.00
2022-08-05T05:34:52.430Z,99176.00
2022-08-05T05:36:28.502Z,99196.00
2022-08-05T05:38:05.629Z,99194.00
2022-08-05T05:39:42.543Z,99196.00
2022-08-05T05:41:19.172Z,99201.00
2022-08-05T05:42:53.000Z,99206.00
2022-08-05T05:44:37.564Z,99198.00
2022-08-05T05:46:17.975Z,99207.00
2022-08-05T05:48:06.392Z,99203.00
2022-08-05T05:49:41.030Z,99214.00
2022-08-05T05:51:21.223Z,99206.00
2022-08-05T05:52:55.417Z,99211.00
2022-08-05T05:54:50.558Z,99216.00
2022-08-05T05:56:26.139Z,99207.00
2022-08-05T05:58:05.578Z,99206.00
2022-08-05T05:59:40.408Z,99200.00
2022-08-05T06:01:15.327Z,99204.00
2022-08-05T06:02:49.188Z,99196.00
2022-08-05T06:04:23.822Z,99211.00
2022-08-05T06:05:57.302Z,99212.00
2022-08-05T06:07:41.187Z,99217.00
2022-08-05T06:09:17.063Z,99209.00
2022-08-05T06:11:00.911Z,99212.00
2022-08-05T06:12:35.711Z,99211.00
2022-08-05T06:14:15.690Z,99205.00
2022-08-05T06:16:30.805Z,99206.00
2022-08-05T06:17:52.829Z,99212.00
2022-08-05T06:19:35.219Z,99217.00
2022-08-05T06:21:16.654Z,99219.00
2022-08-05T06:22:52.227Z,99230.00
2022-08-05T06:24:27.294Z,99225.00
2022-08-05T06:26:20.720Z,99228.00
2022-08-05T06:28:12.176Z,99224.00
2022-08-05T06:30:04.155Z,99221.00
2022-08-05T06:31:41.051Z,99241.00
2022-08-05T06:33:19.286Z,99234.00
2022-08-05T06:34:53.408Z,99231.00
2022-08-05T06:36:29.930Z,99229.00
2022-08-05T06:38:36.102Z,99221.00
2022-08-05T06:40:12.444Z,99228.00
2022-08-05T06:41:50.370Z,99225.00
2022-08-05T06:43:59.228Z,99228.00
2022-08-05T06:45:21.067Z,99239.00
2022-08-05T06:46:55.083Z,99232.00
2022-08-05T06:48:53.807Z,99234.00
2022-08-05T06:50:23.637Z,99243.00
2022-08-05T06:51:58.157Z,99239.00
2022-08-05T06:53:32.844Z,99239.00
2022-08-05T06:55:12.821Z,99246.00
2022-08-05T06:56:54.683Z,99257.00
2022-08-05T06:58:43.489Z,99245.00
2022-08-05T07:00:24.521Z,99251.00
2022-08-05T07:01:58.728Z,99242.00
2022-08-05T07:03:33.438Z,99245.00
2022-08-05T07:05:14.126Z,99244.00
2022-08-05T07:06:47.914Z,99247.00
2022-08-05T07:08:25.129Z,99261.00
2022-08-05T07:09:58.702Z,99257.00
2022-08-05T07:11:32.941Z,99250.00
2022-08-05T07:13:58.570Z,99253.00
2022-08-05T07:16:00.860Z,99257.00
2022-08-05T07:17:58.539Z,99255.00
2022-08-05T07:21:25.949Z,99265.00
2022-08-05T07:22:59.471Z,99262.00
2022-08-05T07:24:35.030Z,99272.00
2022-08-05T07:26:22.570Z,99269.00
2022-08-05T07:28:03.806Z,99272.00
2022-08-05T07:30:25.483Z,99271.00
2022-08-05T07:31:53.923Z,99272.00
2022-08-05T07:33:36.718Z,99275.00
2022-08-05T07:36:03.136Z,99278.00
2022-08-05T07:37:06.844Z,99284.00
2022-08-05T07:38:44.124Z,99289.00
2022-08-05T07:40:32.357Z,99289.00
2022-08-05T07:42:14.168Z,99286.00
2022-08-05T07:43:48.156Z,99292.00
2022-08-05T07:45:56.423Z,99291.00
2022-08-05T07:47:16.801Z,99293.00
2022-08-05T07:49:02.384Z,99293.00
2022-08-05T07:50:39.489Z,99298.00
2022-08-05T07:52:15.476Z,99304.00
2022-08-05T07:53:50.573Z,99308.00
2022-08-05T07:56:05.121Z,99305.00
2022-08-05T07:57:42.122Z,99313.00
2022-08-05T07:59:12.881Z,99310.00
2022-08-05T08:00:50.135Z,99316.00
2022-08-05T08:02:31.454Z,99319.00
2022-08-05T08:04:34.430Z,99323.00
2022-08-05T08:06:11.786Z,99320.00
2022-08-05T08:07:59.731Z,99326.00
2022-08-05T08:09:34.747Z,99326.00
2022-08-05T08:11:08.928Z,99324.00
2022-08-05T08:12:49.795Z,99323.00
2022-08-05T08:14:23.337Z,99326.00
2022-08-05T08:16:34.774Z,99325.00
2022-08-05T08:17:53.070Z,99328.00
2022-08-05T08:20:10.213Z,99328.00
2022-08-05T08:21:20.571Z,99335.00
2022-08-05T08:22:54.201Z,99328.00
2022-08-05T08:24:50.978Z,99331.00
2022-08-05T08:26:29.624Z,99339.00
2022-08-05T08:28:03.453Z,99341.00
2022-08-05T08:30:04.073Z,99361.00
2022-08-05T08:31:32.972Z,99359.00
2022-08-05T08:33:13.641Z,99356.00
2022-08-05T08:34:47.149Z,99363.00
2022-08-05T08:36:38.331Z,99367.00
2022-08-05T08:38:16.731Z,99368.00
2022-08-05T08:40:06.953Z,99370.00
2022-08-05T08:41:51.945Z,99375.00
2022-08-05T08:45:20.946Z,99381.00
2022-08-05T08:45:30.774Z,99382.00
2022-08-05T08:47:46.794Z,99383.00
2022-08-05T08:50:07.820Z,99387.00
2022-08-05T08:51:07.662Z,99387.00
2022-08-05T08:52:57.662Z,99385.00
2022-08-05T08:54:32.830Z,99393.00
2022-08-05T08:56:07.091Z,99390.00
2022-08-05T08:57:48.456Z,99396.00
2022-08-05T08:59:33.580Z,99402.00
2022-08-05T09:01:09.096Z,99402.00
2022-08-05T09:02:52.138Z,99406.00
2022-08-05T09:04:30.471Z,99399.00
2022-08-05T09:06:08.158Z,99407.00
2022-08-05T09:07:57.655Z,99412.00
2022-08-05T09:09:34.969Z,99417.00
2022-08-05T09:11:12.165Z,99422.00
2022-08-05T09:12:51.120Z,99423.00
2022-08-05T09:14:56.854Z,99429.00
2022-08-05T09:16:22.239Z,99432.00
2022-08-05T09:18:01.679Z,99436.00
2022-08-05T09:19:55.099Z,99433.00
2022-08-05T09:22:23.235Z,99447.00
2022-08-05T09:23:28.777Z,99454.00
2022-08-05T09:25:23.684Z,99448.00
2022-08-05T09:26:59.833Z,99439.00
2022-08-05T09:28:35.127Z,99443.00
2022-08-05T09:30:16.479Z,99447.00
2022-08-05T09:32:46.160Z,99448.00
2022-08-05T09:34:02.759Z,99438.00
2022-08-05T09:35:36.428Z,99459.00
2022-08-05T09:38:16.723Z,99454.00
2022-08-05T09:39:17.982Z,99455.00
2022-08-05T09:40:54.112Z,99465.00
2022-08-05T09:42:29.947Z,99463.00
2022-08-05T09:44:05.460Z,99455.00
2022-08-05T09:46:07.735Z,99463.00
2022-08-05T09:47:55.542Z,99468.00
2022-08-05T09:49:40.332Z,99472.00
2022-08-05T09:51:38.002Z,99470.00
2022-08-05T09:53:22.881Z,99469.00
2022-08-05T09:55:55.485Z,99474.00
2022-08-05T09:56:57.665Z,99470.00
2022-08-05T09:58:34.963Z,99465.00
2022-08-05T10:00:13.183Z,99468.00
2022-08-05T10:01:48.142Z,99468.00
2022-08-05T10:03:38.698Z,99481.00
2022-08-05T10:05:32.687Z,99485.00
2022-08-05T10:07:20.467Z,99485.00
2022-08-05T10:09:25.113Z,99491.00
2022-08-05T10:11:04.652Z,99493.00
2022-08-05T10:12:50.053Z,99493.00
2022-08-05T10:14:26.771Z,99493.00
2022-08-05T10:16:00.600Z,99505.00
2022-08-05T10:17:37.782Z,99504.00
2022-08-05T10:19:15.203Z,99507.00
2022-08-05T10:20:53.021Z,99503.00
2022-08-05T10:22:29.805Z,99507.00
2022-08-05T10:24:07.565Z,99510.00
2022-08-05T10:25:44.560Z,99510.00
2022-08-05T10:27:20.118Z,99513.00
2022-08-05T10:29:00.057Z,99518.00
2022-08-05T10:32:48.095Z,99521.00
2022-08-05T10:32:51.792Z,99517.00
2022-08-05T10:34:25.652Z,99532.00
2022-08-05T10:36:06.628Z,99536.00
2022-08-05T10:37:45.014Z,99541.00
2022-08-05T10:39:59.153Z,99528.00
2022-08-05T10:41:46.732Z,99531.00
2022-08-05T10:43:36.456Z,99531.00
2022-08-05T10:45:24.033Z,99522.00
2022-08-05T10:47:26.645Z,99529.00
2022-08-05T10:49:10.456Z,99536.00
2022-08-05T10:51:22.178Z,99534.00
2022-08-05T10:52:58.734Z,99542.00
2022-08-05T10:55:06.689Z,99540.00
2022-08-05T10:56:49.449Z,99539.00
2022-08-05T10:58:35.964Z,99551.00
2022-08-05T11:00:23.117Z,99556.00
2022-08-05T11:02:14.096Z,99557.00
2022-08-05T11:04:07.180Z,99566.00
2022-08-05T11:05:40.770Z,99563.00
2022-08-05T11:07:19.169Z,99566.00
2022-08-05T11:09:32.025Z,99577.00
2022-08-05T11:11:44.310Z,99577.00
2022-08-05T11:13:57.853Z,99581.00
2022-08-05T11:16:00.156Z,99583.00
2022-08-05T11:17:59.554Z,99593.00
2022-08-05T11:20:10.286Z,99593.00
2022-08-05T11:21:40.911Z,99594.00
2022-08-05T11:24:04.102Z,99600.00
2022-08-05T11:26:04.420Z,99608.00
2022-08-05T11:27:51.035Z,99607.00
2022-08-05T11:29:41.605Z,99606.00
2022-08-05T11:31:56.714Z,99609.00
2022-08-05T11:33:34.721Z,99601.00
2022-08-05T11:36:07.449Z,99608.00
2022-08-05T11:38:30.567Z,99618.00
2022-08-05T11:40:03.116Z,99625.00
2022-08-05T11:42:01.264Z,99626.00
2022-08-05T11:44:00.707Z,99631.00
2022-08-05T11:46:14.878Z,99626.00
2022-08-05T11:47:48.550Z,99629.00
2022-08-05T11:49:21.454Z,99633.00
2022-08-05T11:50:55.420Z,99632.00
2022-08-05T11:52:31.157Z,99630.00
2022-08-05T11:54:05.450Z,99634.00
2022-08-05T11:55:55.397Z,99637.00
2022-08-05T11:58:08.085Z,99634.00
2022-08-05T11:59:28.146Z,99641.00
2022-08-05T12:01:08.450Z,99638.00
2022-08-05T12:02:44.585Z,99634.00
2022-08-05T12:04:18.096Z,99627.00
2022-08-05T12:05:51.688Z,99628.00
2022-08-05T12:08:10.541Z,99625.00
2022-08-05T12:09:24.785Z,99622.00
2022-08-05T12:11:23.294Z,99622.00
2022-08-05T12:13:16.028Z,99621.00
2022-08-05T12:14:51.604Z,99625.00
2022-08-05T12:16:29.620Z,99630.00
2022-08-05T12:18:11.916Z,99632.00
2022-08-05T12:20:27.240Z,99627.00
2022-08-05T12:21:48.493Z,99631.00
2022-08-05T12:23:21.067Z,99630.00
2022-08-05T12:24:56.050Z,99627.00
2022-08-05T12:26:34.583Z,99631.00
2022-08-05T12:28:08.660Z,99628.00
2022-08-05T12:29:59.835Z,99630.00
2022-08-05T12:31:46.082Z,99627.00
2022-08-05T12:33:27.308Z,99638.00
2022-08-05T12:35:04.041Z,99638.00
2022-08-05T12:36:39.053Z,99641.00
2022-08-05T12:38:13.305Z,99636.00
2022-08-05T12:39:51.316Z,99640.00
2022-08-05T12:41:34.438Z,99640.00
2022-08-05T12:43:10.014Z,99644.00
2022-08-05T12:44:45.838Z,99642.00
2022-08-05T12:46:29.051Z,99645.00
2022-08-05T12:48:26.897Z,99647.00
2022-08-05T12:50:16.799Z,99647.00
2022-08-05T12:52:12.390Z,99657.00
2022-08-05T12:53:55.916Z,99665.00
2022-08-05T12:55:32.820Z,99656.00
2022-08-05T12:57:10.487Z,99664.00
2022-08-05T12:59:21.042Z,99668.00
2022-08-05T13:02:03.287Z,99664.00
2022-08-05T13:02:56.342Z,99673.00
2022-08-05T13:04:32.501Z,99671.00
2022-08-05T13:06:11.612Z,99671.00
2022-08-05T13:08:00.204Z,99677.00
2022-08-05T13:09:36.355Z,99676.00
2022-08-05T13:11:10.031Z,99684.00
2022-08-05T13:12:57.502Z,99687.00
2022-08-05T13:14:38.853Z,99683.00
2022-08-05T13:16:17.130Z,99685.00
2022-08-05T13:17:56.151Z,99686.00
2022-08-05T13:19:52.455Z,99691.00
2022-08-05T13:21:38.172Z,99690.00
2022-08-05T13:23:22.489Z,99698.00
2022-08-05T13:24:57.911Z,99700.00
2022-08-05T13:26:35.012Z,99692.00
2022-08-05T13:28:10.479Z,99693.00
2022-08-05T13:30:31.441Z,99688.00
2022-08-05T13:32:04.350Z,99700.00
2022-08-05T13:34:20.954Z,99693.00
2022-08-05T13:35:43.338Z,99697.00
2022-08-05T13:37:34.248Z,99703.00
2022-08-05T13:40:12.803Z,99702.00
2022-08-05T13:41:03.637Z,99702.00
2022-08-05T13:42:37.232Z,99700.00
2022-08-05T13:44:11.086Z,99702.00
2022-08-05T13:45:46.034Z,99700.00
2022-08-05T13:47:34.786Z,99699.00
2022-08-05T13:49:10.351Z,99693.00
2022-08-05T13:50:45.528Z,99704.00
2022-08-05T13:52:29.101Z,99707.00
2022-08-05T13:54:03.025Z,99707.00
2022-08-05T13:55:41.762Z,99705.00
2022-08-05T13:57:22.887Z,99711.00
2022-08-05T13:58:58.118Z,99713.00
2022-08-05T14:00:39.806Z,99708.00
2022-08-05T14:02:19.887Z,99714.00
2022-08-05T14:04:11.613Z,99713.00
2022-08-05T14:06:24.335Z,99723.00
2022-08-05T14:08:01.041Z,99725.00
2022-08-05T14:09:37.633Z,99727.00
2022-08-05T14:11:20.428Z,99724.00
2022-08-05T14:12:54.728Z,99726.00
2022-08-05T14:14:33.590Z,99727.00
2022-08-05T14:16:11.630Z,99734.00
2022-08-05T14:17:51.520Z,99727.00
2022-08-05T14:19:28.936Z,99727.00
2022-08-05T14:22:09.203Z,99730.00
2022-08-05T14:22:56.637Z,99732.00
2022-08-05T14:24:30.595Z,99728.00
2022-08-05T14:26:04.793Z,99730.00
2022-08-05T14:27:40.284Z,99729.00
2022-08-05T14:29:21.113Z,99732.00
2022-08-05T14:30:57.013Z,99736.00
2022-08-05T14:32:31.477Z,99737.00
2022-08-05T14:34:06.569Z,99736.00
2022-08-05T14:35:50.270Z,99734.00
2022-08-05T14:37:48.109Z,99725.00
2022-08-05T14:39:23.076Z,99726.00
2022-08-05T14:40:57.692Z,99725.00
2022-08-05T14:42:31.323Z,99729.00
2022-08-05T14:44:10.066Z,99720.00
2022-08-05T14:45:53.520Z,99727.00
2022-08-05T14:47:58.520Z,99729.00
2022-08-05T14:49:23.033Z,99724.00
2022-08-05T14:50:56.806Z,99727.00
2022-08-05T14:52:51.623Z,99732.00
2022-08-05T14:54:28.401Z,99723.00
2022-08-05T14:56:03.980Z,99729.00
2022-08-05T14:57:54.791Z,99735.00
2022-08-05T14:59:35.639Z,99734.00
2022-08-05T15:01:16.072Z,99735.00
2022-08-05T15:02:52.457Z,99744.00
2022-08-05T15:04:29.140Z,99744.00
2022-08-05T15:06:07.772Z,99749.00
2022-08-05T15:08:05.827Z,99759.00
2022-08-05T15:09:52.343Z,99748.00
2022-08-05T15:11:52.424Z,99757.00
2022-08-05T15:13:21.160Z,99751.00
2022-08-05T15:15:15.591Z,99758.00
2022-08-05T15:16:49.197Z,99753.00
2022-08-05T15:18:24.935Z,99758.00
2022-08-05T15:20:00.510Z,99758.00
2022-08-05T15:21:33.968Z,99757.00
2022-08-05T15:23:12.000Z,99757.00
2022-08-05T15:24:45.834Z,99771.00
2022-08-05T15:26:32.247Z,99763.00
2022-08-05T15:28:06.735Z,99767.00
2022-08-05T15:29:42.093Z,99770.00
2022-08-05T15:31:15.831Z,99757.00
2022-08-05T15:32:49.216Z,99766.00
2022-08-05T15:34:31.878Z,99753.00
2022-08-05T15:36:17.401Z,99758.00
2022-08-05T15:38:09.229Z,99760.00
2022-08-05T15:40:59.596Z,99764.00
2022-08-05T15:41:57.691Z,99763.00
2022-08-05T15:43:45.737Z,99757.00
2022-08-05T15:45:37.890Z,99763.00
2022-08-05T15:47:13.301Z,99763.00
2022-08-05T15:48:52.764Z,99748.00
2022-08-05T15:50:32.365Z,99754.00
2022-08-05T15:52:12.963Z,99757.00
2022-08-05T15:53:50.318Z,99759.00
2022-08-05T15:56:03.043Z,99754.00
2022-08-05T15:57:18.031Z,99761.00
2022-08-05T15:58:52.193Z,99762.00
2022-08-05T16:00:30.509Z,99757.00
2022-08-05T16:02:14.871Z,99760.00
2022-08-05T16:03:53.156Z,99761.00
2022-08-05T16:05:28.515Z,99758.00
2022-08-05T16:07:02.479Z,99757.00
2022-08-05T16:08:37.347Z,99760.00
2022-08-05T16:10:11.790Z,99755.00
2022-08-05T16:11:49.690Z,99750.00
2022-08-05T16:13:34.216Z,99758.00
2022-08-05T16:15:10.289Z,99760.00
2022-08-05T16:16:52.147Z,99767.00
2022-08-05T16:18:28.099Z,99763.00
2022-08-05T16:20:02.595Z,99766.00
2022-08-05T16:21:58.869Z,99760.00
2022-08-05T16:23:53.539Z,99757.00
2022-08-05T16:25:34.097Z,99754.00
2022-08-05T16:27:09.114Z,99761.00
2022-08-05T16:28:42.470Z,99760.00
2022-08-05T16:30:25.522Z,99769.00
2022-08-05T16:32:00.606Z,99768.00
2022-08-05T16:33:41.283Z,99770.00
2022-08-05T16:35:16.003Z,99769.00
2022-08-05T16:36:52.203Z,99777.00
2022-08-05T16:38:27.999Z,99778.00
2022-08-05T16:40:05.000Z,99778.00
2022-08-05T16:42:13.747Z,99776.00
2022-08-05T16:43:37.246Z,99779.00
2022-08-05T16:46:03.762Z,99784.00
2022-08-05T16:47:05.080Z,99781.00
2022-08-05T16:48:39.223Z,99788.00
2022-08-05T16:50:12.872Z,99788.00
2022-08-05T16:51:50.940Z,99791.00
2022-08-05T16:53:32.195Z,99795.00
2022-08-05T16:55:19.735Z,99800.00
2022-08-05T16:56:55.700Z,99796.00
2022-08-05T16:58:30.147Z,99795.00
2022-08-05T17:00:07.745Z,99796.00
2022-08-05T17:01:54.650Z,99800.00
2022-08-05T17:03:29.404Z,99800.00
2022-08-05T17:05:04.915Z,99798.00
2022-08-05T17:06:41.857Z,99801.00
2022-08-05T17:08:15.594Z,99818.00
2022-08-05T17:10:10.320Z,99803.00
2022-08-05T17:11:48.488Z,99808.00
2022-08-05T17:13:37.781Z,99812.00
2022-08-05T17:15:15.549Z,99822.00
2022-08-05T17:16:49.736Z,99824.00
2022-08-05T17:18:27.242Z,99812.00
2022-08-05T17:20:00.942Z,99821.00
2022-08-05T17:21:36.760Z,99824.00
2022-08-05T17:23:10.955Z,99827.00
2022-08-05T17:25:22.306Z,99836.00
2022-08-05T17:26:59.866Z,99834.00
2022-08-05T17:28:36.126Z,99833.00
2022-08-05T17:30:18.899Z,99838.00
2022-08-05T17:31:58.984Z,99839.00
2022-08-05T17:33:38.852Z,99831.00
2022-08-05T17:35:22.068Z,99836.00
2022-08-05T17:36:55.747Z,99848.00
2022-08-05T17:38:29.072Z,99842.00
2022-08-05T17:40:02.578Z,99849.00
2022-08-05T17:42:17.788Z,99851.00
2022-08-05T17:43:50.651Z,99844.00
2022-08-05T17:45:29.516Z,99848.00
2022-08-05T17:47:11.019Z,99850.00
2022-08-05T17:48:47.632Z,99853.00
2022-08-05T17:50:27.816Z,99858.00
2022-08-05T17:52:02.978Z,99858.00
2022-08-05T17:53:36.549Z,99862.00
2022-08-05T17:55:13.145Z,99867.00
2022-08-05T17:56:48.996Z,99870.00
2022-08-05T17:58:32.838Z,99877.00
2022-08-05T18:00:08.519Z,99877.00
2022-08-05T18:01:50.402Z,99868.00
2022-08-05T18:03:56.564Z,99877.00
2022-08-05T18:05:18.496Z,99880.00
2022-08-05T18:06:51.955Z,99877.00
2022-08-05T18:08:26.026Z,99887.00
2022-08-05T18:10:02.057Z,99879.00
2022-08-05T18:11:43.941Z,99881.00
2022-08-05T18:13:17.295Z,99890.00
2022-08-05T18:14:52.390Z,99895.00
2022-08-05T18:16:25.804Z,99892.00
2022-08-05T18:18:05.758Z,99892.00
2022-08-05T18:19:44.717Z,99896.00
2022-08-05T18:21:26.084Z,99897.00
2022-08-05T18:23:00.611Z,99890.00
2022-08-05T18:24:42.965Z,99910.00
2022-08-05T18:26:18.769Z,99907.00
2022-08-05T18:27:52.870Z,99915.00
2022-08-05T18:29:40.301Z,99913.00
2022-08-05T18:31:15.904Z,99920.00
2022-08-05T18:32:53.474Z,99918.00
2022-08-05T18:34:40.887Z,99931.00
2022-08-05T18:36:15.355Z,99923.00
2022-08-05T18:37:49.131Z,99929.00
2022-08-05T18:39:42.220Z,99924.00
2022-08-05T18:41:56.853Z,99926.00
2022-08-05T18:43:16.566Z,99924.00
2022-08-05T18:44:55.682Z,99935.00
2022-08-05T18:46:30.012Z,99939.00
2022-08-05T18:48:04.129Z,99942.00
2022-08-05T18:49:57.805Z,99939.00
2022-08-05T18:52:06.598Z,99941.00
2022-08-05T18:53:42.955Z,99943.00
2022-08-05T18:55:19.892Z,99947.00
2022-08-05T18:56:53.627Z,99945.00
2022-08-05T18:58:29.064Z,99942.00
2022-08-05T19:00:07.558Z,99947.00
2022-08-05T19:01:47.846Z,99945.00
2022-08-05T19:03:53.194Z,99946.00
2022-08-05T19:06:12.910Z,99944.00
2022-08-05T19:07:20.046Z,99949.00
2022-08-05T19:08:53.496Z,99952.00
2022-08-05T19:10:28.551Z,99947.00
2022-08-05T19:12:02.257Z,99958.00
2022-08-05T19:13:36.732Z,99955.00
2022-08-05T19:15:56.884Z,99963.00
2022-08-05T19:17:07.728Z,99954.00
2022-08-05T19:18:41.580Z,99962.00
2022-08-05T19:20:15.763Z,99960.00
2022-08-05T19:21:52.320Z,99968.00
2022-08-05T19:24:05.687Z,99970.00
2022-08-05T19:25:29.527Z,99970.00
2022-08-05T19:27:05.915Z,99977.00
2022-08-05T19:28:43.359Z,99976.00
2022-08-05T19:30:20.529Z,99980.00
2022-08-05T19:31:57.358Z,99982.00
2022-08-05T19:33:35.962Z,99985.00
2022-08-05T19:35:11.092Z,99987.00
2022-08-05T19:36:49.021Z,99993.00
2022-08-05T19:38:26.579Z,99997.00
2022-08-05T19:40:00.963Z,99995.00
2022-08-05T19:42:05.621Z,100006.00
2022-08-05T19:44:05.728Z,100003.00
2022-08-05T19:45:21.088Z,100006.00
2022-08-05T19:46:59.040Z,100013.00
2022-08-05T19:48:32.468Z,100018.00
2022-08-05T19:50:11.855Z,100017.00
2022-08-05T19:52:04.696Z,100017.00
2022-08-05T19:54:04.223Z,100021.00
2022-08-05T19:56:13.997Z,100030.00
2022-08-05T19:57:48.937Z,100035.00
2022-08-05T19:59:59.629Z,100039.00
2022-08-05T20:01:15.777Z,100041.00
2022-08-05T20:03:08.772Z,100037.00
2022-08-05T20:04:46.097Z,100043.00
2022-08-05T20:06:21.660Z,100041.00
2022-08-05T20:08:02.926Z,100053.00
2022-08-05T20:09:55.152Z,100050.00